sensor_id;sensor_type;location;lat;lon;timestamp;pressure;altitude;pressure_sealevel;temperature;humidity
50710;BME280;37033;49.994;21.992;2023-04-10T00:01:47;99935.48;;;4.19;79.53
50710;BME280;37033;49.994;21.992;2023-04-10T00:04:18;99929.14;;;4.17;79.43
50710;BME280;37033;49.994;21.992;2023-04-10T00:06:50;99929.92;;;4.15;79.55
50710;BME280;37033;49.994;21.992;2023-04-10T00:09:20;99926.24;;;4.13;79.67
50710;BME280;37033;49.994;21.992;2023-04-10T00:11:51;99924.67;;;4.10;79.80
50710;BME280;37033;49.994;21.992;2023-04-10T00:14:22;99921.88;;;4.08;79.77
50710;BME280;37033;49.994;21.992;2023-04-10T00:16:53;99921.34;;;4.08;79.71
50710;BME280;37033;49.994;21.992;2023-04-10T00:19:23;99914.01;;;4.07;79.89
50710;BME280;37033;49.994;21.992;2023-04-10T00:21:55;99909.18;;;4.06;80.13
50710;BME280;37033;49.994;21.992;2023-04-10T00:24:26;99910.30;;;4.03;79.94
50710;BME280;37033;49.994;21.992;2023-04-10T00:26:57;99909.64;;;4.00;80.05
50710;BME280;37033;49.994;21.992;2023-04-10T00:29:27;99909.87;;;3.99;80.00
50710;BME280;37033;49.994;21.992;2023-04-10T00:31:58;99911.38;;;3.98;80.22
50710;BME280;37033;49.994;21.992;2023-04-10T00:34:29;99913.77;;;3.99;80.31
50710;BME280;37033;49.994;21.992;2023-04-10T00:37:00;99911.70;;;4.00;80.20
50710;BME280;37033;49.994;21.992;2023-04-10T00:39:30;99912.85;;;4.02;80.34
50710;BME280;37033;49.994;21.992;2023-04-10T00:42:01;99908.73;;;4.04;80.36
50710;BME280;37033;49.994;21.992;2023-04-10T00:44:32;99905.65;;;4.05;80.46
50710;BME280;37033;49.994;21.992;2023-04-10T00:47:05;99905.89;;;4.06;80.39
50710;BME280;37033;49.994;21.992;2023-04-10T00:49:36;99904.18;;;4.06;80.38
50710;BME280;37033;49.994;21.992;2023-04-10T00:52:07;99906.46;;;4.06;80.51
50710;BME280;37033;49.994;21.992;2023-04-10T00:54:38;99902.70;;;4.06;80.70
50710;BME280;37033;49.994;21.992;2023-04-10T00:57:09;99901.14;;;4.07;80.84
50710;BME280;37033;49.994;21.992;2023-04-10T00:59:40;99898.45;;;4.08;80.75
50710;BME280;37033;49.994;21.992;2023-04-10T01:02:11;99898.36;;;4.11;81.08
50710;BME280;37033;49.994;21.992;2023-04-10T01:04:42;99900.21;;;4.13;81.11
50710;BME280;37033;49.994;21.992;2023-04-10T01:07:17;99899.95;;;4.15;81.15
50710;BME280;37033;49.994;21.992;2023-04-10T01:10:01;99893.48;;;4.19;81.20
50710;BME280;37033;49.994;21.992;2023-04-10T01:12:48;99893.70;;;4.21;81.17
50710;BME280;37033;49.994;21.992;2023-04-10T01:15:21;99892.59;;;4.23;81.11
50710;BME280;37033;49.994;21.992;2023-04-10T01:17:56;99890.83;;;4.24;81.22
50710;BME280;37033;49.994;21.992;2023-04-10T01:20:30;99885.34;;;4.25;81.24
50710;BME280;37033;49.994;21.992;2023-04-10T01:26:06;99881.34;;;4.27;81.36
50710;BME280;37033;49.994;21.992;2023-04-10T01:28:52;99885.25;;;4.29;81.44
50710;BME280;37033;49.994;21.992;2023-04-10T01:31:28;99875.80;;;4.30;81.41
50710;BME280;37033;49.994;21.992;2023-04-10T01:34:03;99876.59;;;4.30;81.49
50710;BME280;37033;49.994;21.992;2023-04-10T01:36:37;99878.13;;;4.31;81.65
50710;BME280;37033;49.994;21.992;2023-04-10T01:39:10;99882.05;;;4.31;81.73
50710;BME280;37033;49.994;21.992;2023-04-10T01:41:42;99885.48;;;4.33;81.77
50710;BME280;37033;49.994;21.992;2023-04-10T01:44:15;99886.33;;;4.34;82.02
50710;BME280;37033;49.994;21.992;2023-04-10T01:46:49;99898.10;;;4.37;82.43
50710;BME280;37033;49.994;21.992;2023-04-10T01:49:20;99906.30;;;4.40;82.85
50710;BME280;37033;49.994;21.992;2023-04-10T01:51:52;99916.91;;;4.47;83.38
50710;BME280;37033;49.994;21.992;2023-04-10T01:54:27;99919.96;;;4.57;83.55
50710;BME280;37033;49.994;21.992;2023-04-10T01:56:58;99920.73;;;4.65;83.69
50710;BME280;37033;49.994;21.992;2023-04-10T01:59:30;99918.21;;;4.74;84.00
50710;BME280;37033;49.994;21.992;2023-04-10T02:02:01;99905.81;;;4.82;84.21
50710;BME280;37033;49.994;21.992;2023-04-10T02:04:33;99897.42;;;4.87;84.27
50710;BME280;37033;49.994;21.992;2023-04-10T02:07:06;99890.89;;;4.92;84.05
50710;BME280;37033;49.994;21.992;2023-04-10T02:09:44;99879.47;;;4.95;84.27
50710;BME280;37033;49.994;21.992;2023-04-10T02:12:22;99879.18;;;4.99;84.31
50710;BME280;37033;49.994;21.992;2023-04-10T02:14:56;99879.58;;;5.02;84.25
50710;BME280;37033;49.994;21.992;2023-04-10T02:17:31;99880.85;;;5.05;84.09
50710;BME280;37033;49.994;21.992;2023-04-10T02:20:03;99880.87;;;5.07;84.08
50710;BME280;37033;49.994;21.992;2023-04-10T02:22:36;99884.05;;;5.11;84.10
50710;BME280;37033;49.994;21.992;2023-04-10T02:25:08;99880.00;;;5.12;84.30
50710;BME280;37033;49.994;21.992;2023-04-10T02:27:39;99879.40;;;5.15;84.21
50710;BME280;37033;49.994;21.992;2023-04-10T02:30:11;99878.63;;;5.17;84.32
50710;BME280;37033;49.994;21.992;2023-04-10T02:32:41;99881.46;;;5.18;84.17
50710;BME280;37033;49.994;21.992;2023-04-10T02:35:12;99879.82;;;5.20;84.37
50710;BME280;37033;49.994;21.992;2023-04-10T02:37:43;99879.87;;;5.21;84.34
50710;BME280;37033;49.994;21.992;2023-04-10T02:40:15;99883.20;;;5.23;84.29
50710;BME280;37033;49.994;21.992;2023-04-10T02:42:46;99876.91;;;5.24;84.13
50710;BME280;37033;49.994;21.992;2023-04-10T02:45:17;99877.85;;;5.25;84.26
50710;BME280;37033;49.994;21.992;2023-04-10T02:47:47;99879.98;;;5.27;84.33
50710;BME280;37033;49.994;21.992;2023-04-10T02:50:18;99875.62;;;5.27;84.21
50710;BME280;37033;49.994;21.992;2023-04-10T02:52:49;99873.76;;;5.28;84.36
50710;BME280;37033;49.994;21.992;2023-04-10T02:55:20;99870.57;;;5.29;84.31
50710;BME280;37033;49.994;21.992;2023-04-10T02:57:51;99870.86;;;5.29;84.18
50710;BME280;37033;49.994;21.992;2023-04-10T03:00:21;99867.92;;;5.30;84.31
50710;BME280;37033;49.994;21.992;2023-04-10T03:02:52;99867.08;;;5.29;84.45
50710;BME280;37033;49.994;21.992;2023-04-10T03:05:23;99870.60;;;5.27;84.37
50710;BME280;37033;49.994;21.992;2023-04-10T03:07:53;99870.98;;;5.26;84.37
50710;BME280;37033;49.994;21.992;2023-04-10T03:10:24;99869.87;;;5.25;84.48
50710;BME280;37033;49.994;21.992;2023-04-10T03:12:55;99869.45;;;5.24;84.57
50710;BME280;37033;49.994;21.992;2023-04-10T03:15:26;99868.14;;;5.23;84.62
50710;BME280;37033;49.994;21.992;2023-04-10T03:17:56;99868.93;;;5.22;84.51
50710;BME280;37033;49.994;21.992;2023-04-10T03:20:27;99870.05;;;5.22;84.67
50710;BME280;37033;49.994;21.992;2023-04-10T03:22:58;99865.27;;;5.20;84.64
50710;BME280;37033;49.994;21.992;2023-04-10T03:25:29;99863.44;;;5.19;84.61
50710;BME280;37033;49.994;21.992;2023-04-10T03:28:00;99863.46;;;5.18;84.58
50710;BME280;37033;49.994;21.992;2023-04-10T03:30:31;99869.11;;;5.18;84.59
50710;BME280;37033;49.994;21.992;2023-04-10T03:33:03;99875.35;;;5.17;84.69
50710;BME280;37033;49.994;21.992;2023-04-10T03:35:34;99870.96;;;5.16;84.87
50710;BME280;37033;49.994;21.992;2023-04-10T03:38:04;99871.57;;;5.16;84.98
50710;BME280;37033;49.994;21.992;2023-04-10T03:40:35;99873.02;;;5.16;84.95
50710;BME280;37033;49.994;21.992;2023-04-10T03:43:06;99873.98;;;5.15;84.98
50710;BME280;37033;49.994;21.992;2023-04-10T03:45:36;99874.69;;;5.15;85.15
50710;BME280;37033;49.994;21.992;2023-04-10T03:48:07;99870.67;;;5.16;85.09
50710;BME280;37033;49.994;21.992;2023-04-10T03:50:38;99864.57;;;5.15;85.10
50710;BME280;37033;49.994;21.992;2023-04-10T03:53:08;99862.58;;;5.16;85.01
50710;BME280;37033;49.994;21.992;2023-04-10T03:55:39;99857.06;;;5.15;85.27
50710;BME280;37033;49.994;21.992;2023-04-10T03:58:10;99853.70;;;5.16;85.48
50710;BME280;37033;49.994;21.992;2023-04-10T04:00:41;99851.77;;;5.19;85.94
50710;BME280;37033;49.994;21.992;2023-04-10T04:03:12;99854.08;;;5.20;85.87
50710;BME280;37033;49.994;21.992;2023-04-10T04:05:42;99857.62;;;5.22;85.78
50710;BME280;37033;49.994;21.992;2023-04-10T04:08:13;99857.30;;;5.25;85.90
50710;BME280;37033;49.994;21.992;2023-04-10T04:10:44;99858.69;;;5.26;85.86
50710;BME280;37033;49.994;21.992;2023-04-10T04:13:14;99863.59;;;5.29;85.99
50710;BME280;37033;49.994;21.992;2023-04-10T04:15:45;99866.65;;;5.31;85.97
50710;BME280;37033;49.994;21.992;2023-04-10T04:18:17;99867.33;;;5.35;85.89
50710;BME280;37033;49.994;21.992;2023-04-10T04:20:48;99873.78;;;5.38;85.95
50710;BME280;37033;49.994;21.992;2023-04-10T04:23:18;99878.25;;;5.41;85.88
50710;BME280;37033;49.994;21.992;2023-04-10T04:25:49;99877.31;;;5.44;85.98
50710;BME280;37033;49.994;21.992;2023-04-10T04:28:21;99871.80;;;5.46;85.79
50710;BME280;37033;49.994;21.992;2023-04-10T04:30:51;99868.02;;;5.48;85.96
50710;BME280;37033;49.994;21.992;2023-04-10T04:33:22;99873.59;;;5.49;85.96
50710;BME280;37033;49.994;21.992;2023-04-10T04:35:52;99871.02;;;5.51;86.01
50710;BME280;37033;49.994;21.992;2023-04-10T04:38:23;99874.23;;;5.53;85.95
50710;BME280;37033;49.994;21.992;2023-04-10T04:40:54;99876.36;;;5.56;86.06
50710;BME280;37033;49.994;21.992;2023-04-10T04:43:24;99876.80;;;5.58;86.26
50710;BME280;37033;49.994;21.992;2023-04-10T04:45:55;99878.50;;;5.60;86.31
50710;BME280;37033;49.994;21.992;2023-04-10T04:48:26;99876.66;;;5.63;86.33
50710;BME280;37033;49.994;21.992;2023-04-10T04:50:56;99875.44;;;5.66;86.35
50710;BME280;37033;49.994;21.992;2023-04-10T04:53:27;99880.27;;;5.68;86.29
50710;BME280;37033;49.994;21.992;2023-04-10T04:55:58;99879.65;;;5.70;86.23
50710;BME280;37033;49.994;21.992;2023-04-10T04:58:28;99883.12;;;5.75;86.34
50710;BME280;37033;49.994;21.992;2023-04-10T05:00:59;99884.80;;;5.78;86.32
50710;BME280;37033;49.994;21.992;2023-04-10T05:03:30;99881.71;;;5.81;86.55
50710;BME280;37033;49.994;21.992;2023-04-10T05:06:01;99879.69;;;5.84;86.57
50710;BME280;37033;49.994;21.992;2023-04-10T05:08:31;99883.99;;;5.87;86.41
50710;BME280;37033;49.994;21.992;2023-04-10T05:11:02;99884.89;;;5.90;86.42
50710;BME280;37033;49.994;21.992;2023-04-10T05:13:33;99890.42;;;5.93;86.52
50710;BME280;37033;49.994;21.992;2023-04-10T05:16:04;99892.39;;;5.97;86.61
50710;BME280;37033;49.994;21.992;2023-04-10T05:18:35;99895.92;;;5.99;86.62
50710;BME280;37033;49.994;21.992;2023-04-10T05:21:06;99898.59;;;6.03;86.66
50710;BME280;37033;49.994;21.992;2023-04-10T05:23:37;99896.88;;;6.06;86.77
50710;BME280;37033;49.994;21.992;2023-04-10T05:26:08;99900.00;;;6.09;86.73
50710;BME280;37033;49.994;21.992;2023-04-10T05:28:39;99906.05;;;6.13;86.91
50710;BME280;37033;49.994;21.992;2023-04-10T05:31:09;99906.61;;;6.17;86.78
50710;BME280;37033;49.994;21.992;2023-04-10T05:33:40;99906.63;;;6.21;86.89
50710;BME280;37033;49.994;21.992;2023-04-10T05:36:11;99907.10;;;6.26;86.92
50710;BME280;37033;49.994;21.992;2023-04-10T05:38:44;99908.47;;;6.32;86.91
50710;BME280;37033;49.994;21.992;2023-04-10T05:41:15;99908.66;;;6.37;86.93
50710;BME280;37033;49.994;21.992;2023-04-10T05:43:46;99909.29;;;6.43;86.96
50710;BME280;37033;49.994;21.992;2023-04-10T05:46:18;99908.98;;;6.48;87.00
50710;BME280;37033;49.994;21.992;2023-04-10T05:48:48;99912.45;;;6.53;87.05
50710;BME280;37033;49.994;21.992;2023-04-10T05:51:19;99912.89;;;6.59;87.08
50710;BME280;37033;49.994;21.992;2023-04-10T05:53:50;99919.77;;;6.65;87.07
50710;BME280;37033;49.994;21.992;2023-04-10T05:56:21;99920.33;;;6.72;87.04
50710;BME280;37033;49.994;21.992;2023-04-10T05:58:52;99920.23;;;6.79;87.09
50710;BME280;37033;49.994;21.992;2023-04-10T06:01:22;99918.00;;;6.88;87.09
50710;BME280;37033;49.994;21.992;2023-04-10T06:03:53;99915.79;;;6.97;87.15
50710;BME280;37033;49.994;21.992;2023-04-10T06:06:24;99916.01;;;7.07;87.11
50710;BME280;37033;49.994;21.992;2023-04-10T06:08:55;99910.37;;;7.20;87.26
50710;BME280;37033;49.994;21.992;2023-04-10T06:11:25;99911.70;;;7.32;87.37
50710;BME280;37033;49.994;21.992;2023-04-10T06:13:56;99910.46;;;7.46;87.30
50710;BME280;37033;49.994;21.992;2023-04-10T06:16:27;99913.75;;;7.57;87.09
50710;BME280;37033;49.994;21.992;2023-04-10T06:18:58;99914.48;;;7.71;87.22
50710;BME280;37033;49.994;21.992;2023-04-10T06:21:28;99910.17;;;7.84;87.09
50710;BME280;37033;49.994;21.992;2023-04-10T06:23:59;99906.79;;;7.94;86.74
50710;BME280;37033;49.994;21.992;2023-04-10T06:26:30;99909.52;;;8.03;86.60
50710;BME280;37033;49.994;21.992;2023-04-10T06:29:01;99907.83;;;8.14;86.52
50710;BME280;37033;49.994;21.992;2023-04-10T06:31:34;99907.17;;;8.22;86.38
50710;BME280;37033;49.994;21.992;2023-04-10T06:34:04;99909.40;;;8.27;86.28
50710;BME280;37033;49.994;21.992;2023-04-10T06:36:35;99908.40;;;8.29;85.72
50710;BME280;37033;49.994;21.992;2023-04-10T06:39:06;99909.98;;;8.31;85.68
50710;BME280;37033;49.994;21.992;2023-04-10T06:41:36;99911.42;;;8.35;85.88
50710;BME280;37033;49.994;21.992;2023-04-10T06:44:07;99906.27;;;8.39;85.66
50710;BME280;37033;49.994;21.992;2023-04-10T06:46:38;99906.05;;;8.44;85.41
50710;BME280;37033;49.994;21.992;2023-04-10T06:49:08;99908.15;;;8.47;85.25
50710;BME280;37033;49.994;21.992;2023-04-10T06:51:39;99909.52;;;8.51;85.28
50710;BME280;37033;49.994;21.992;2023-04-10T06:54:10;99900.39;;;8.58;85.24
50710;BME280;37033;49.994;21.992;2023-04-10T06:56:41;99902.00;;;8.70;85.15
50710;BME280;37033;49.994;21.992;2023-04-10T06:59:11;99898.73;;;8.80;84.97
50710;BME280;37033;49.994;21.992;2023-04-10T07:01:42;99895.18;;;8.89;84.55
50710;BME280;37033;49.994;21.992;2023-04-10T07:04:13;99897.83;;;8.98;84.57
50710;BME280;37033;49.994;21.992;2023-04-10T07:06:43;99900.84;;;9.10;84.37
50710;BME280;37033;49.994;21.992;2023-04-10T07:09:14;99899.51;;;9.16;83.77
50710;BME280;37033;49.994;21.992;2023-04-10T07:11:45;99897.20;;;9.19;83.52
50710;BME280;37033;49.994;21.992;2023-04-10T07:14:16;99895.91;;;9.23;83.50
50710;BME280;37033;49.994;21.992;2023-04-10T07:16:47;99896.91;;;9.27;83.40
50710;BME280;37033;49.994;21.992;2023-04-10T07:19:17;99898.11;;;9.36;83.30
50710;BME280;37033;49.994;21.992;2023-04-10T07:21:48;99893.67;;;9.42;83.02
50710;BME280;37033;49.994;21.992;2023-04-10T07:24:19;99893.73;;;9.51;83.12
50710;BME280;37033;49.994;21.992;2023-04-10T07:26:50;99897.56;;;9.61;83.09
50710;BME280;37033;49.994;21.992;2023-04-10T07:29:20;99898.90;;;9.70;82.65
50710;BME280;37033;49.994;21.992;2023-04-10T07:31:51;99900.50;;;9.78;82.31
50710;BME280;37033;49.994;21.992;2023-04-10T07:34:22;99899.58;;;9.83;81.85
50710;BME280;37033;49.994;21.992;2023-04-10T07:36:53;99901.48;;;9.85;81.69
50710;BME280;37033;49.994;21.992;2023-04-10T07:39:24;99896.36;;;9.90;81.66
50710;BME280;37033;49.994;21.992;2023-04-10T07:41:55;99890.59;;;9.99;81.55
50710;BME280;37033;49.994;21.992;2023-04-10T07:44:27;99889.98;;;10.08;81.50
50710;BME280;37033;49.994;21.992;2023-04-10T07:46:58;99889.27;;;10.20;81.42
50710;BME280;37033;49.994;21.992;2023-04-10T07:49:29;99890.21;;;10.35;81.09
50710;BME280;37033;49.994;21.992;2023-04-10T07:51:59;99889.86;;;10.47;80.36
50710;BME280;37033;49.994;21.992;2023-04-10T07:54:32;99887.48;;;10.57;80.22
50710;BME280;37033;49.994;21.992;2023-04-10T07:57:03;99886.19;;;10.75;80.38
50710;BME280;37033;49.994;21.992;2023-04-10T07:59:34;99881.29;;;10.93;80.02
50710;BME280;37033;49.994;21.992;2023-04-10T08:02:05;99880.83;;;11.16;80.07
50710;BME280;37033;49.994;21.992;2023-04-10T08:04:35;99877.15;;;11.39;79.31
50710;BME280;37033;49.994;21.992;2023-04-10T08:07:06;99876.17;;;11.57;78.89
50710;BME280;37033;49.994;21.992;2023-04-10T08:09:37;99877.17;;;11.72;78.02
50710;BME280;37033;49.994;21.992;2023-04-10T08:12:08;99871.38;;;11.86;77.79
50710;BME280;37033;49.994;21.992;2023-04-10T08:14:38;99873.09;;;11.99;77.02
50710;BME280;37033;49.994;21.992;2023-04-10T08:17:09;99869.98;;;12.08;75.57
50710;BME280;37033;49.994;21.992;2023-04-10T08:19:43;99868.13;;;12.17;74.87
50710;BME280;37033;49.994;21.992;2023-04-10T08:22:13;99861.80;;;12.25;74.55
50710;BME280;37033;49.994;21.992;2023-04-10T08:24:44;99858.31;;;12.38;74.67
50710;BME280;37033;49.994;21.992;2023-04-10T08:27:17;99858.59;;;12.55;75.01
50710;BME280;37033;49.994;21.992;2023-04-10T08:29:50;99858.89;;;12.71;75.03
50710;BME280;37033;49.994;21.992;2023-04-10T08:32:23;99855.41;;;12.90;73.35
50710;BME280;37033;49.994;21.992;2023-04-10T08:34:57;99857.20;;;13.04;71.55
50710;BME280;37033;49.994;21.992;2023-04-10T08:37:31;99856.14;;;13.10;69.49
50710;BME280;37033;49.994;21.992;2023-04-10T08:40:02;99855.28;;;13.17;69.50
50710;BME280;37033;49.994;21.992;2023-04-10T08:42:33;99857.22;;;13.30;68.37
50710;BME280;37033;49.994;21.992;2023-04-10T08:45:07;99852.80;;;13.36;68.31
50710;BME280;37033;49.994;21.992;2023-04-10T08:47:41;99854.03;;;13.46;68.12
50710;BME280;37033;49.994;21.992;2023-04-10T08:50:13;99850.23;;;13.46;67.87
50710;BME280;37033;49.994;21.992;2023-04-10T08:52:47;99847.65;;;13.43;67.85
50710;BME280;37033;49.994;21.992;2023-04-10T08:55:20;99840.42;;;13.52;69.09
50710;BME280;37033;49.994;21.992;2023-04-10T08:57:54;99842.69;;;13.73;69.17
50710;BME280;37033;49.994;21.992;2023-04-10T09:00:25;99839.80;;;13.92;68.10
50710;BME280;37033;49.994;21.992;2023-04-10T09:02:57;99838.90;;;14.02;66.66
50710;BME280;37033;49.994;21.992;2023-04-10T09:05:29;99837.45;;;13.96;65.64
50710;BME280;37033;49.994;21.992;2023-04-10T09:08:08;99836.23;;;13.87;65.34
50710;BME280;37033;49.994;21.992;2023-04-10T09:10:41;99835.44;;;13.84;65.56
50710;BME280;37033;49.994;21.992;2023-04-10T09:13:15;99834.42;;;13.94;65.42
50710;BME280;37033;49.994;21.992;2023-04-10T09:15:59;99842.52;;;14.07;64.99
50710;BME280;37033;49.994;21.992;2023-04-10T09:18:43;99835.23;;;14.11;63.81
50710;BME280;37033;49.994;21.992;2023-04-10T09:21:19;99832.52;;;14.04;64.07
50710;BME280;37033;49.994;21.992;2023-04-10T09:24:00;99829.64;;;14.05;64.11
50710;BME280;37033;49.994;21.992;2023-04-10T09:26:33;99832.21;;;14.02;63.03
50710;BME280;37033;49.994;21.992;2023-04-10T09:29:07;99823.47;;;13.97;62.76
50710;BME280;37033;49.994;21.992;2023-04-10T09:31:40;99823.28;;;14.04;62.85
50710;BME280;37033;49.994;21.992;2023-04-10T09:34:16;99816.34;;;14.16;62.87
50710;BME280;37033;49.994;21.992;2023-04-10T09:36:56;99817.75;;;14.34;62.06
50710;BME280;37033;49.994;21.992;2023-04-10T09:39:37;99810.65;;;14.46;61.11
50710;BME280;37033;49.994;21.992;2023-04-10T09:42:11;99806.48;;;14.55;60.90
50710;BME280;37033;49.994;21.992;2023-04-10T09:44:43;99805.20;;;14.66;60.33
50710;BME280;37033;49.994;21.992;2023-04-10T09:47:18;99802.66;;;14.69;60.77
50710;BME280;37033;49.994;21.992;2023-04-10T09:49:51;99798.92;;;14.84;60.35
50710;BME280;37033;49.994;21.992;2023-04-10T09:52:23;99794.22;;;15.03;60.12
50710;BME280;37033;49.994;21.992;2023-04-10T09:54:55;99794.09;;;15.14;59.33
50710;BME280;37033;49.994;21.992;2023-04-10T09:57:29;99791.77;;;15.13;58.73
50710;BME280;37033;49.994;21.992;2023-04-10T10:00:07;99787.81;;;15.10;58.32
50710;BME280;37033;49.994;21.992;2023-04-10T10:02:39;99785.63;;;15.05;58.58
50710;BME280;37033;49.994;21.992;2023-04-10T10:05:11;99784.44;;;15.05;59.12
50710;BME280;37033;49.994;21.992;2023-04-10T10:07:42;99776.57;;;15.21;60.04
50710;BME280;37033;49.994;21.992;2023-04-10T10:10:14;99776.73;;;15.45;58.92
50710;BME280;37033;49.994;21.992;2023-04-10T10:12:47;99768.05;;;15.57;57.46
50710;BME280;37033;49.994;21.992;2023-04-10T10:15:24;99763.44;;;15.76;58.34
50710;BME280;37033;49.994;21.992;2023-04-10T10:18:06;99761.86;;;16.00;57.71
50710;BME280;37033;49.994;21.992;2023-04-10T10:20:39;99763.38;;;16.07;56.72
50710;BME280;37033;49.994;21.992;2023-04-10T10:23:13;99762.20;;;15.92;55.40
50710;BME280;37033;49.994;21.992;2023-04-10T10:25:49;99764.20;;;15.67;55.06
50710;BME280;37033;49.994;21.992;2023-04-10T10:28:24;99771.23;;;15.43;54.98
50710;BME280;37033;49.994;21.992;2023-04-10T10:30:57;99773.38;;;15.21;55.61
50710;BME280;37033;49.994;21.992;2023-04-10T10:33:33;99768.02;;;15.01;57.25
50710;BME280;37033;49.994;21.992;2023-04-10T10:36:06;99758.04;;;14.84;58.38
50710;BME280;37033;49.994;21.992;2023-04-10T10:38:40;99758.60;;;14.73;59.05
50710;BME280;37033;49.994;21.992;2023-04-10T10:41:17;99755.11;;;14.63;59.44
50710;BME280;37033;49.994;21.992;2023-04-10T10:43:58;99751.22;;;14.57;59.88
50710;BME280;37033;49.994;21.992;2023-04-10T10:46:37;99746.92;;;14.51;60.45
50710;BME280;37033;49.994;21.992;2023-04-10T10:49:10;99746.52;;;14.49;60.13
50710;BME280;37033;49.994;21.992;2023-04-10T10:51:45;99746.27;;;14.47;60.52
50710;BME280;37033;49.994;21.992;2023-04-10T10:54:32;99738.61;;;14.46;60.67
50710;BME280;37033;49.994;21.992;2023-04-10T11:00:14;99730.51;;;14.51;61.17
50710;BME280;37033;49.994;21.992;2023-04-10T11:02:45;99727.94;;;14.60;61.34
50710;BME280;37033;49.994;21.992;2023-04-10T11:05:50;99721.58;;;14.72;60.77
50710;BME280;37033;49.994;21.992;2023-04-10T11:08:39;99718.27;;;14.79;60.69
50710;BME280;37033;49.994;21.992;2023-04-10T11:11:18;99718.15;;;14.87;58.26
50710;BME280;37033;49.994;21.992;2023-04-10T11:14:18;99714.27;;;14.88;56.79
50710;BME280;37033;49.994;21.992;2023-04-10T11:16:49;99705.06;;;14.94;55.90
50710;BME280;37033;49.994;21.992;2023-04-10T11:19:23;99696.52;;;15.09;55.86
50710;BME280;37033;49.994;21.992;2023-04-10T11:22:08;99690.80;;;15.34;54.08
50710;BME280;37033;49.994;21.992;2023-04-10T11:24:59;99688.54;;;15.62;52.11
50710;BME280;37033;49.994;21.992;2023-04-10T11:27:45;99684.55;;;15.89;49.39
50710;BME280;37033;49.994;21.992;2023-04-10T11:30:30;99685.99;;;16.11;49.65
50710;BME280;37033;49.994;21.992;2023-04-10T11:33:05;99685.70;;;16.30;48.22
50710;BME280;37033;49.994;21.992;2023-04-10T11:35:39;99678.20;;;16.47;48.97
50710;BME280;37033;49.994;21.992;2023-04-10T11:38:16;99675.73;;;16.68;47.48
50710;BME280;37033;49.994;21.992;2023-04-10T11:43:34;99673.86;;;16.74;43.37
50710;BME280;37033;49.994;21.992;2023-04-10T11:46:06;99665.69;;;16.64;43.40
50710;BME280;37033;49.994;21.992;2023-04-10T11:48:37;99660.58;;;16.62;43.32
50710;BME280;37033;49.994;21.992;2023-04-10T11:51:09;99658.55;;;16.68;44.14
50710;BME280;37033;49.994;21.992;2023-04-10T11:53:41;99656.27;;;16.83;43.75
50710;BME280;37033;49.994;21.992;2023-04-10T11:56:21;99655.92;;;16.94;43.96
50710;BME280;37033;49.994;21.992;2023-04-10T11:58:54;99655.44;;;16.93;43.24
50710;BME280;37033;49.994;21.992;2023-04-10T12:01:28;99650.25;;;16.74;44.07
50710;BME280;37033;49.994;21.992;2023-04-10T12:04:00;99643.18;;;16.54;44.63
50710;BME280;37033;49.994;21.992;2023-04-10T12:06:31;99644.83;;;16.35;45.37
50710;BME280;37033;49.994;21.992;2023-04-10T12:09:13;99644.00;;;16.27;45.27
50710;BME280;37033;49.994;21.992;2023-04-10T12:11:55;99640.80;;;16.20;44.90
50710;BME280;37033;49.994;21.992;2023-04-10T12:14:32;99632.36;;;16.21;44.34
50710;BME280;37033;49.994;21.992;2023-04-10T12:17:05;99627.04;;;16.29;44.23
50710;BME280;37033;49.994;21.992;2023-04-10T12:19:39;99622.88;;;16.30;43.57
50710;BME280;37033;49.994;21.992;2023-04-10T12:22:11;99621.34;;;16.29;43.58
50710;BME280;37033;49.994;21.992;2023-04-10T12:24:43;99621.66;;;16.31;43.99
50710;BME280;37033;49.994;21.992;2023-04-10T12:27:18;99620.58;;;16.37;44.23
50710;BME280;37033;49.994;21.992;2023-04-10T12:29:50;99621.23;;;16.40;44.18
50710;BME280;37033;49.994;21.992;2023-04-10T12:32:25;99618.05;;;16.46;44.82
50710;BME280;37033;49.994;21.992;2023-04-10T12:34:57;99619.58;;;16.61;44.85
50710;BME280;37033;49.994;21.992;2023-04-10T12:37:49;99616.22;;;16.71;43.56
50710;BME280;37033;49.994;21.992;2023-04-10T12:40:23;99621.27;;;16.61;43.16
50710;BME280;37033;49.994;21.992;2023-04-10T12:42:58;99620.95;;;16.50;42.36
50710;BME280;37033;49.994;21.992;2023-04-10T12:45:44;99616.07;;;16.34;40.32
50710;BME280;37033;49.994;21.992;2023-04-10T12:48:24;99623.30;;;16.13;41.09
50710;BME280;37033;49.994;21.992;2023-04-10T12:50:58;99624.42;;;15.97;42.21
50710;BME280;37033;49.994;21.992;2023-04-10T12:53:29;99617.88;;;15.84;42.47
50710;BME280;37033;49.994;21.992;2023-04-10T12:56:12;99620.40;;;15.71;43.74
50710;BME280;37033;49.994;21.992;2023-04-10T12:58:43;99618.84;;;15.64;44.14
50710;BME280;37033;49.994;21.992;2023-04-10T13:01:16;99614.09;;;15.55;44.82
50710;BME280;37033;49.994;21.992;2023-04-10T13:03:47;99613.15;;;15.51;45.42
50710;BME280;37033;49.994;21.992;2023-04-10T13:06:21;99606.95;;;15.52;45.66
50710;BME280;37033;49.994;21.992;2023-04-10T13:08:57;99602.55;;;15.63;46.18
50710;BME280;37033;49.994;21.992;2023-04-10T13:11:31;99598.79;;;15.79;46.42
50710;BME280;37033;49.994;21.992;2023-04-10T13:14:05;99588.90;;;16.00;46.32
50710;BME280;37033;49.994;21.992;2023-04-10T13:16:35;99580.36;;;16.19;46.32
50710;BME280;37033;49.994;21.992;2023-04-10T13:19:09;99576.73;;;16.41;46.77
50710;BME280;37033;49.994;21.992;2023-04-10T13:21:41;99567.09;;;16.69;46.42
50710;BME280;37033;49.994;21.992;2023-04-10T13:24:11;99567.77;;;16.97;45.63
50710;BME280;37033;49.994;21.992;2023-04-10T13:26:42;99566.21;;;17.14;44.57
50710;BME280;37033;49.994;21.992;2023-04-10T13:29:15;99565.61;;;17.16;44.73
50710;BME280;37033;49.994;21.992;2023-04-10T13:31:46;99566.84;;;17.09;43.95
50710;BME280;37033;49.994;21.992;2023-04-10T13:34:18;99561.95;;;16.96;44.39